首页
METAR-TAF:

METAR-TAF

机场 :

兰州中川国际机场

兰州, 中华人民共和国

纬度: 36-02N, 经度: 103-52E, 海拔: 1518米

当前天气观测

该预报发布于24分钟前的00:00 UTC
风速2节,风向北转西北
温度 2°C
湿度 55%
气压 1005 hPa
能见度10公里或以上
1500米以下无云,无积雨云

METAR: ZLLL 190000Z 34001MPS CAVOK 02/M06 Q1005 NOSIG

时间: 08:24 (00:24 UTC)

预报

该预报发布于5小时和10分钟前的19:14 UTC
预报有效从19日的 00点(UTC)到 19日的 24点(UTC)
风速6节,风向
能見度: 6000

TAF: ZLLL 181914Z 1900/1924 18003MPS 6000 NSC TX15/1909Z TNM04/23Z

超过4000个机场的气象观测和天气预报(METAR&TAF报告)。

可查询的气象台以黄色和红色小点在地图上表示。

将鼠标移到小点上方,可查看气象台名称。

然后点击查看天气观测和预报。

如需切换地图:点击带黑十字的绿色按钮放大地图;点击带横线的绿色按钮缩小地图;或者点击绿色箭头查看邻近地区的地图。


METAR-TAF: